createdAt,value
2019-01-13T00:00:42.711Z,0.00
2019-01-13T00:01:42.696Z,0.00
2019-01-13T00:02:42.682Z,0.00
2019-01-13T00:03:42.669Z,0.00
2019-01-13T00:04:42.654Z,0.00
2019-01-13T00:05:42.638Z,0.00
2019-01-13T00:06:42.625Z,0.00
2019-01-13T00:07:42.610Z,0.00
2019-01-13T00:08:42.597Z,0.00
2019-01-13T00:09:42.581Z,0.00
2019-01-13T00:10:42.567Z,0.00
2019-01-13T00:11:42.553Z,0.00
2019-01-13T00:12:42.539Z,0.00
2019-01-13T00:13:42.524Z,0.00
2019-01-13T00:14:42.509Z,0.00
2019-01-13T00:15:42.496Z,0.00
2019-01-13T00:16:42.481Z,0.00
2019-01-13T00:17:42.466Z,0.00
2019-01-13T00:18:42.453Z,0.00
2019-01-13T00:19:42.438Z,0.00
2019-01-13T00:20:42.424Z,0.00
2019-01-13T00:21:42.411Z,0.00
2019-01-13T00:22:42.395Z,0.00
2019-01-13T00:23:42.381Z,0.00
2019-01-13T00:24:42.367Z,0.00
2019-01-13T00:25:42.352Z,0.00
2019-01-13T00:26:42.341Z,0.00
2019-01-13T00:27:42.324Z,0.00
2019-01-13T00:28:42.312Z,0.00
2019-01-13T00:29:42.295Z,0.00
2019-01-13T00:30:42.281Z,0.00
2019-01-13T00:31:42.267Z,0.00
2019-01-13T00:32:42.253Z,0.00
2019-01-13T00:33:42.240Z,0.00
2019-01-13T00:34:42.225Z,0.00
2019-01-13T00:35:42.214Z,0.00
2019-01-13T00:36:42.197Z,0.00
2019-01-13T00:37:42.189Z,0.00
2019-01-13T00:38:42.170Z,0.00
2019-01-13T00:39:42.156Z,0.00
2019-01-13T00:40:42.143Z,0.00
2019-01-13T00:41:42.127Z,0.00
2019-01-13T00:42:42.213Z,0.00
2019-01-13T00:43:42.099Z,0.00
2019-01-13T00:44:42.085Z,0.00
2019-01-13T00:45:42.071Z,0.00
2019-01-13T00:46:42.058Z,0.00
2019-01-13T00:47:42.044Z,0.00
2019-01-13T00:48:42.066Z,0.00
2019-01-13T00:49:42.015Z,0.00
2019-01-13T00:50:42.002Z,0.00
2019-01-13T00:51:41.988Z,0.00
2019-01-13T00:52:41.975Z,0.00
2019-01-13T00:53:42.980Z,0.00
2019-01-13T00:54:41.949Z,0.00
2019-01-13T00:55:41.933Z,0.00
2019-01-13T00:56:41.919Z,0.00
2019-01-13T00:57:41.906Z,0.00
2019-01-13T00:58:41.894Z,0.00
2019-01-13T00:59:41.879Z,0.00
2019-01-13T01:00:41.864Z,0.00
2019-01-13T01:01:41.850Z,0.00
2019-01-13T01:02:41.835Z,0.00
2019-01-13T01:03:41.872Z,0.00
2019-01-13T01:04:41.808Z,0.00
2019-01-13T01:05:41.794Z,0.00
2019-01-13T01:06:41.780Z,0.00
2019-01-13T01:07:41.766Z,0.00
2019-01-13T01:08:41.754Z,0.00
2019-01-13T01:09:41.739Z,0.00
2019-01-13T01:10:41.723Z,0.00
2019-01-13T01:11:41.710Z,0.00
2019-01-13T01:12:41.696Z,0.00
2019-01-13T01:13:41.682Z,0.00
2019-01-13T01:14:41.671Z,0.00
2019-01-13T01:15:41.655Z,0.00
2019-01-13T01:16:41.641Z,0.00
2019-01-13T01:17:41.626Z,0.00
2019-01-13T01:18:41.863Z,0.00
2019-01-13T01:19:41.599Z,0.00
2019-01-13T01:20:41.588Z,0.00
2019-01-13T01:21:41.571Z,0.00
2019-01-13T01:22:41.557Z,0.00
2019-01-13T01:23:41.543Z,0.00
2019-01-13T01:24:41.530Z,0.00
2019-01-13T01:25:41.515Z,0.00
2019-01-13T01:26:41.502Z,0.00
2019-01-13T01:27:41.492Z,0.00
2019-01-13T01:28:41.475Z,0.00
2019-01-13T01:29:41.460Z,0.00
2019-01-13T01:30:41.447Z,0.00
2019-01-13T01:31:41.436Z,0.00
2019-01-13T01:32:41.420Z,0.00
2019-01-13T01:33:41.406Z,0.00
2019-01-13T01:34:41.392Z,0.00
2019-01-13T01:35:41.378Z,0.00
2019-01-13T01:36:41.366Z,0.00
2019-01-13T01:37:41.400Z,0.00
2019-01-13T01:38:41.336Z,0.00
2019-01-13T01:39:41.323Z,0.00
2019-01-13T01:40:41.309Z,0.00
2019-01-13T01:41:41.295Z,0.00
2019-01-13T01:42:41.282Z,0.00
2019-01-13T01:43:41.267Z,0.00
2019-01-13T01:44:41.254Z,0.00
2019-01-13T01:45:41.239Z,0.00
2019-01-13T01:46:41.226Z,0.00
2019-01-13T01:47:41.213Z,0.00
2019-01-13T01:48:41.202Z,0.00
2019-01-13T01:49:41.186Z,0.00
2019-01-13T01:50:41.171Z,0.00
2019-01-13T01:51:41.156Z,0.00
2019-01-13T01:52:41.143Z,0.00
2019-01-13T01:53:41.128Z,0.00
2019-01-13T01:54:41.114Z,0.00
2019-01-13T01:55:41.101Z,0.00
2019-01-13T01:56:41.087Z,0.00
2019-01-13T01:57:41.072Z,0.00
2019-01-13T01:58:41.058Z,0.00
2019-01-13T01:59:41.044Z,0.00
2019-01-13T02:00:41.032Z,0.00
2019-01-13T02:01:41.018Z,0.00
2019-01-13T02:02:41.002Z,0.00
2019-01-13T02:03:41.055Z,0.00
2019-01-13T02:04:40.975Z,0.00
2019-01-13T02:05:40.960Z,0.00
2019-01-13T02:06:40.947Z,0.00
2019-01-13T02:07:40.952Z,0.00
2019-01-13T02:08:40.920Z,0.00
2019-01-13T02:09:40.904Z,0.00
2019-01-13T02:10:40.891Z,0.00
2019-01-13T02:11:40.877Z,0.00
2019-01-13T02:12:40.863Z,0.00
2019-01-13T02:13:40.849Z,0.00
2019-01-13T02:14:40.835Z,0.00
2019-01-13T02:15:40.821Z,0.00
2019-01-13T02:16:40.807Z,0.00
2019-01-13T02:17:40.794Z,0.00
2019-01-13T02:18:40.779Z,0.00
2019-01-13T02:19:40.765Z,0.00
2019-01-13T02:20:40.751Z,0.00
2019-01-13T02:21:40.737Z,0.00
2019-01-13T02:22:40.723Z,0.00
2019-01-13T02:23:40.709Z,0.00
2019-01-13T02:24:40.699Z,0.00
2019-01-13T02:25:40.681Z,0.00
2019-01-13T02:26:40.669Z,0.00
2019-01-13T02:27:40.654Z,0.00
2019-01-13T02:28:41.040Z,0.00
2019-01-13T02:29:40.628Z,0.00
2019-01-13T02:30:48.788Z,0.00
2019-01-13T02:31:40.598Z,0.00
2019-01-13T02:32:40.586Z,0.00
2019-01-13T02:33:40.569Z,0.00
2019-01-13T02:34:40.557Z,0.00
2019-01-13T02:35:40.544Z,0.00
2019-01-13T02:36:40.529Z,0.00
2019-01-13T02:37:40.514Z,0.00
2019-01-13T02:38:40.600Z,0.00
2019-01-13T02:39:40.486Z,0.00
2019-01-13T02:40:40.473Z,0.00
2019-01-13T02:41:40.465Z,0.00
2019-01-13T02:42:40.444Z,0.00
2019-01-13T02:43:40.433Z,0.00
2019-01-13T02:44:40.417Z,0.00
2019-01-13T02:45:40.402Z,0.00
2019-01-13T02:46:40.388Z,0.00
2019-01-13T02:47:40.375Z,0.00
2019-01-13T02:48:40.361Z,0.00
2019-01-13T02:49:40.349Z,0.00
2019-01-13T02:50:40.333Z,0.00
2019-01-13T02:51:40.319Z,0.00
2019-01-13T02:52:40.305Z,0.00
2019-01-13T02:53:40.290Z,0.00
2019-01-13T02:54:40.277Z,0.00
2019-01-13T02:55:40.264Z,0.00
2019-01-13T02:56:40.251Z,0.00
2019-01-13T02:57:40.234Z,0.00
2019-01-13T02:58:40.223Z,0.00
2019-01-13T02:59:40.207Z,0.00
2019-01-13T03:00:40.193Z,0.00
2019-01-13T03:01:40.179Z,0.00
2019-01-13T03:02:40.166Z,0.00
2019-01-13T03:03:40.151Z,0.00
2019-01-13T03:04:40.493Z,0.00
2019-01-13T03:05:40.125Z,0.00
2019-01-13T03:06:40.110Z,0.00
2019-01-13T03:07:40.095Z,0.00
2019-01-13T03:08:40.083Z,0.00
2019-01-13T03:09:40.068Z,0.00
2019-01-13T03:10:40.054Z,0.00
2019-01-13T03:11:40.039Z,0.00
2019-01-13T03:12:40.026Z,0.00
2019-01-13T03:13:40.016Z,0.00
2019-01-13T03:14:40.008Z,0.00
2019-01-13T03:15:39.987Z,0.00
2019-01-13T03:16:39.969Z,0.00
2019-01-13T03:17:39.955Z,0.00
2019-01-13T03:18:39.941Z,0.00
2019-01-13T03:19:39.966Z,0.00
2019-01-13T03:20:39.915Z,0.00
2019-01-13T03:21:39.900Z,0.00
2019-01-13T03:22:39.885Z,0.00
2019-01-13T03:23:39.871Z,0.00
2019-01-13T03:24:39.859Z,0.00
2019-01-13T03:25:39.844Z,0.00
2019-01-13T03:26:39.834Z,0.00
2019-01-13T03:27:39.815Z,0.00
2019-01-13T03:38:39.659Z,0.00
2019-01-13T03:39:39.647Z,0.00
2019-01-13T03:40:39.631Z,0.00
2019-01-13T03:41:39.627Z,0.00
2019-01-13T03:42:39.603Z,0.00
2019-01-13T03:43:39.589Z,0.00
2019-01-13T03:44:39.574Z,0.00
2019-01-13T03:45:39.559Z,0.00
2019-01-13T03:46:39.545Z,0.00
2019-01-13T03:47:39.531Z,0.00
2019-01-13T03:48:39.518Z,0.00
2019-01-13T03:49:39.502Z,0.00
2019-01-13T03:50:39.488Z,0.00
2019-01-13T03:51:39.474Z,0.00
2019-01-13T03:52:39.461Z,0.00
2019-01-13T03:53:39.445Z,0.00
2019-01-13T03:54:39.430Z,0.00
2019-01-13T03:55:39.425Z,0.00
2019-01-13T03:56:39.402Z,0.00
2019-01-13T03:57:39.414Z,0.00
2019-01-13T03:58:39.374Z,0.00
2019-01-13T03:59:39.359Z,0.00
2019-01-13T04:00:39.345Z,0.00
2019-01-13T04:01:39.333Z,0.00
2019-01-13T04:02:39.315Z,0.00
2019-01-13T04:03:39.303Z,0.00
2019-01-13T04:04:39.288Z,0.00
2019-01-13T04:05:39.273Z,0.00
2019-01-13T04:06:39.259Z,0.00
2019-01-13T04:07:39.246Z,0.00
2019-01-13T04:08:39.231Z,0.00
2019-01-13T04:09:39.216Z,0.00
2019-01-13T04:10:39.201Z,0.00
2019-01-13T04:11:39.188Z,0.00
2019-01-13T04:12:39.174Z,0.00
2019-01-13T04:13:39.159Z,0.00
2019-01-13T04:14:39.154Z,0.00
2019-01-13T04:15:39.133Z,0.00
2019-01-13T04:16:39.118Z,0.00
2019-01-13T04:17:39.103Z,0.00
2019-01-13T04:18:39.091Z,0.00
2019-01-13T04:19:39.079Z,0.00
2019-01-13T04:20:39.062Z,0.00
2019-01-13T04:21:39.048Z,0.00
2019-01-13T04:22:39.035Z,0.00
2019-01-13T04:23:39.021Z,0.00
2019-01-13T04:24:39.008Z,0.00
2019-01-13T04:25:38.992Z,0.00
2019-01-13T04:26:38.978Z,0.00
2019-01-13T04:27:38.965Z,0.00
2019-01-13T04:28:38.953Z,0.00
2019-01-13T04:29:38.938Z,0.00
2019-01-13T04:30:38.924Z,0.00
2019-01-13T04:31:38.909Z,0.00
2019-01-13T04:32:38.898Z,0.00
2019-01-13T04:33:38.883Z,0.00
2019-01-13T04:34:38.868Z,0.00
2019-01-13T04:35:38.855Z,0.00
2019-01-13T04:36:38.842Z,0.00
2019-01-13T04:37:38.826Z,0.00
2019-01-13T04:38:38.813Z,0.00
2019-01-13T04:39:38.799Z,0.00
2019-01-13T04:40:38.786Z,0.00
2019-01-13T04:41:38.771Z,0.00
2019-01-13T04:42:38.758Z,0.00
2019-01-13T04:43:38.745Z,0.00
2019-01-13T04:44:38.732Z,0.00
2019-01-13T04:45:38.717Z,0.00
2019-01-13T04:46:38.747Z,0.00
2019-01-13T04:47:38.695Z,0.00
2019-01-13T04:48:38.676Z,0.00
2019-01-13T04:49:38.663Z,0.00
2019-01-13T04:50:38.648Z,0.00
2019-01-13T04:51:38.636Z,0.00
2019-01-13T04:52:38.622Z,0.00
2019-01-13T04:53:38.606Z,0.00
2019-01-13T04:54:38.595Z,0.00
2019-01-13T04:55:38.585Z,0.00
2019-01-13T04:56:38.566Z,0.00
2019-01-13T04:57:38.552Z,0.00
2019-01-13T04:58:38.541Z,0.00
2019-01-13T04:59:38.524Z,0.00
2019-01-13T05:00:38.513Z,0.00
2019-01-13T05:01:38.501Z,0.00
2019-01-13T05:02:38.488Z,0.00
2019-01-13T05:03:38.471Z,0.00
2019-01-13T05:04:38.477Z,0.00
2019-01-13T05:05:38.449Z,0.00
2019-01-13T05:06:38.429Z,0.00
2019-01-13T05:07:38.417Z,0.00
2019-01-13T05:08:38.402Z,0.00
2019-01-13T05:09:38.388Z,0.00
2019-01-13T05:10:38.375Z,0.00
2019-01-13T05:11:38.362Z,0.00
2019-01-13T05:12:38.347Z,0.00
2019-01-13T05:13:38.335Z,0.00
2019-01-13T05:14:38.324Z,0.00
2019-01-13T05:15:38.326Z,0.00
2019-01-13T05:16:38.293Z,0.00
2019-01-13T05:17:38.278Z,0.00
2019-01-13T05:18:38.266Z,0.00
2019-01-13T05:19:38.253Z,0.00
2019-01-13T05:20:40.143Z,0.00
2019-01-13T05:21:38.223Z,0.00
2019-01-13T05:22:38.217Z,0.00
2019-01-13T05:23:38.197Z,0.00
2019-01-13T05:24:38.186Z,0.00
2019-01-13T05:25:38.174Z,0.00
2019-01-13T05:26:38.156Z,0.00
2019-01-13T05:27:38.142Z,0.00
2019-01-13T05:28:38.129Z,0.00
2019-01-13T05:29:38.115Z,0.00
2019-01-13T05:30:38.102Z,0.00
2019-01-13T05:31:41.884Z,0.00
2019-01-13T05:32:38.075Z,0.00
2019-01-13T05:33:38.060Z,0.00
2019-01-13T05:34:38.048Z,0.00
2019-01-13T05:35:38.034Z,0.00
2019-01-13T05:36:38.020Z,0.00
2019-01-13T05:37:38.008Z,0.00
2019-01-13T05:38:37.996Z,0.00
2019-01-13T05:39:37.979Z,0.00
2019-01-13T05:40:37.966Z,0.00
2019-01-13T05:41:37.952Z,0.00
2019-01-13T05:42:37.938Z,0.00
2019-01-13T05:43:37.925Z,0.00
2019-01-13T05:44:37.911Z,0.00
2019-01-13T05:45:37.897Z,0.00
2019-01-13T05:46:37.884Z,0.00
2019-01-13T05:47:37.871Z,0.00
2019-01-13T05:48:37.857Z,0.00
2019-01-13T05:49:37.842Z,0.00
2019-01-13T05:50:37.829Z,0.00
2019-01-13T05:51:37.816Z,0.00
2019-01-13T05:52:37.802Z,0.00
2019-01-13T05:53:37.788Z,0.00
2019-01-13T05:54:37.776Z,0.00
2019-01-13T05:55:37.762Z,0.00
2019-01-13T05:56:37.751Z,0.00
2019-01-13T05:57:37.734Z,0.00
2019-01-13T05:58:37.720Z,0.00
2019-01-13T05:59:37.707Z,0.00
2019-01-13T06:00:37.693Z,0.00
2019-01-13T06:01:37.682Z,0.00
2019-01-13T06:02:37.666Z,0.00
2019-01-13T06:03:37.652Z,0.00
2019-01-13T06:04:37.640Z,0.00
2019-01-13T06:05:37.627Z,0.00
2019-01-13T06:06:37.610Z,0.00
2019-01-13T06:07:37.598Z,0.00
2019-01-13T06:08:37.584Z,0.00
2019-01-13T06:09:37.569Z,0.00
2019-01-13T06:10:37.558Z,0.00
2019-01-13T06:11:37.543Z,0.00
2019-01-13T06:12:37.529Z,0.00
2019-01-13T06:13:37.515Z,0.00
2019-01-13T06:14:37.502Z,0.00
2019-01-13T06:15:37.490Z,0.00
2019-01-13T06:16:37.477Z,0.00
2019-01-13T06:17:37.463Z,0.00
2019-01-13T06:18:37.449Z,0.00
2019-01-13T06:19:37.433Z,0.00
2019-01-13T06:20:37.421Z,0.00
2019-01-13T06:21:37.405Z,0.00
2019-01-13T06:22:37.393Z,0.00
2019-01-13T06:23:37.378Z,0.00
2019-01-13T06:24:37.364Z,0.00
2019-01-13T06:25:37.350Z,0.00
2019-01-13T06:26:37.336Z,0.00
2019-01-13T06:27:37.322Z,0.00
2019-01-13T06:28:37.308Z,0.00
2019-01-13T06:29:37.294Z,0.00
2019-01-13T06:30:37.281Z,0.00
2019-01-13T06:31:37.267Z,0.00
2019-01-13T06:32:37.253Z,0.00
2019-01-13T06:33:37.239Z,0.00
2019-01-13T06:34:37.233Z,0.00
2019-01-13T06:35:37.211Z,0.00
2019-01-13T06:36:37.198Z,0.00
2019-01-13T06:37:37.185Z,0.00
2019-01-13T06:38:37.169Z,0.00
2019-01-13T06:39:37.156Z,0.00
2019-01-13T06:40:37.142Z,0.00
2019-01-13T06:41:37.127Z,0.00
2019-01-13T06:42:37.114Z,0.00
2019-01-13T06:43:37.100Z,0.00
2019-01-13T06:44:37.089Z,0.00
2019-01-13T06:45:37.072Z,0.00
2019-01-13T06:46:37.059Z,0.00
2019-01-13T06:47:37.045Z,0.00
2019-01-13T06:48:37.031Z,0.00
2019-01-13T06:49:37.016Z,0.00
2019-01-13T06:50:37.003Z,0.00
2019-01-13T06:51:36.989Z,0.00
2019-01-13T06:52:36.975Z,0.00
2019-01-13T06:53:36.960Z,0.00
2019-01-13T06:54:36.948Z,0.00
2019-01-13T06:55:36.933Z,0.00
2019-01-13T06:56:36.919Z,0.00
2019-01-13T06:57:36.904Z,0.00
2019-01-13T06:58:36.894Z,0.00
2019-01-13T06:59:36.876Z,0.00
2019-01-13T07:00:36.863Z,0.00
2019-01-13T07:01:36.850Z,0.00
2019-01-13T07:02:36.835Z,0.00
2019-01-13T07:03:36.821Z,0.00
2019-01-13T07:04:36.808Z,0.00
2019-01-13T07:05:36.792Z,0.00
2019-01-13T07:06:36.779Z,0.00
2019-01-13T07:07:37.534Z,0.00
2019-01-13T07:08:36.751Z,0.00
2019-01-13T07:09:36.737Z,0.00
2019-01-13T07:10:36.725Z,0.00
2019-01-13T07:11:36.709Z,0.00
2019-01-13T07:12:36.695Z,0.00
2019-01-13T07:13:36.680Z,0.00
2019-01-13T07:14:36.667Z,0.00
2019-01-13T07:15:36.653Z,0.00
2019-01-13T07:16:36.643Z,0.00
2019-01-13T07:17:36.625Z,0.00
2019-01-13T07:18:36.612Z,0.00
2019-01-13T07:19:36.598Z,0.00
2019-01-13T07:20:36.584Z,0.00
2019-01-13T07:21:36.569Z,0.00
2019-01-13T07:22:36.558Z,0.00
2019-01-13T07:23:36.542Z,0.00
2019-01-13T07:24:36.528Z,0.00
2019-01-13T07:25:36.514Z,0.00
2019-01-13T07:26:36.500Z,0.00
2019-01-13T07:27:36.485Z,0.00
2019-01-13T07:28:36.473Z,0.00
2019-01-13T07:29:36.461Z,0.00
2019-01-13T07:30:36.444Z,0.00
2019-01-13T07:31:36.432Z,0.00
2019-01-13T07:32:36.517Z,0.00
2019-01-13T07:33:36.405Z,0.00
2019-01-13T07:34:36.388Z,0.00
2019-01-13T07:35:36.375Z,0.00
2019-01-13T07:36:36.364Z,0.00
2019-01-13T07:37:36.348Z,0.00
2019-01-13T07:38:36.333Z,0.00
2019-01-13T07:39:36.319Z,0.00
2019-01-13T07:40:36.306Z,0.00
2019-01-13T07:41:36.291Z,0.00
2019-01-13T07:42:36.277Z,0.00
2019-01-13T07:43:36.264Z,0.00
2019-01-13T07:44:36.250Z,0.00
2019-01-13T07:45:36.239Z,0.00
2019-01-13T07:46:36.222Z,0.00
2019-01-13T07:47:36.208Z,0.00
2019-01-13T07:48:36.195Z,0.00
2019-01-13T07:49:36.181Z,5.63
2019-01-13T07:50:36.167Z,5.63
2019-01-13T07:51:36.153Z,5.63
2019-01-13T07:52:36.140Z,5.63
2019-01-13T07:53:36.125Z,5.63
2019-01-13T07:54:36.111Z,5.63
2019-01-13T07:55:36.098Z,5.63
2019-01-13T07:56:36.084Z,5.63
2019-01-13T07:57:36.070Z,5.63
2019-01-13T07:58:36.056Z,5.63
2019-01-13T07:59:36.043Z,5.63
2019-01-13T08:00:36.029Z,11.25
2019-01-13T08:01:36.014Z,11.25
2019-01-13T08:02:36.000Z,11.25
2019-01-13T08:03:35.987Z,11.25
2019-01-13T08:04:35.976Z,11.25
2019-01-13T08:05:35.960Z,11.25
2019-01-13T08:06:35.950Z,11.25
2019-01-13T08:07:35.932Z,11.25
2019-01-13T08:08:35.918Z,11.25
2019-01-13T08:09:35.904Z,11.25
2019-01-13T08:10:35.890Z,11.25
2019-01-13T08:11:35.881Z,11.25
2019-01-13T08:12:35.863Z,11.25
2019-01-13T08:13:35.849Z,11.25
2019-01-13T08:14:35.835Z,11.25
2019-01-13T08:15:35.822Z,11.25
2019-01-13T08:16:35.808Z,11.25
2019-01-13T08:17:35.794Z,16.88
2019-01-13T08:18:35.781Z,16.88
2019-01-13T08:19:35.767Z,16.88
2019-01-13T08:20:35.753Z,16.88
2019-01-13T08:21:35.739Z,16.88
2019-01-13T08:22:35.726Z,16.88
2019-01-13T08:23:35.712Z,16.88
2019-01-13T08:24:35.699Z,16.88
2019-01-13T08:25:35.684Z,16.88
2019-01-13T08:26:35.673Z,16.88
2019-01-13T08:27:35.658Z,16.88
2019-01-13T08:28:35.644Z,16.88
2019-01-13T08:29:35.630Z,16.88
2019-01-13T08:30:35.617Z,16.88
2019-01-13T08:31:35.604Z,16.88
2019-01-13T08:32:35.590Z,16.88
2019-01-13T08:33:35.576Z,11.25
2019-01-13T08:34:35.562Z,16.88
2019-01-13T08:35:35.550Z,22.50
2019-01-13T08:36:35.536Z,16.88
2019-01-13T08:37:35.520Z,28.13
2019-01-13T08:38:35.507Z,28.13
2019-01-13T08:39:35.494Z,28.13
2019-01-13T08:40:35.480Z,33.75
2019-01-13T08:41:35.466Z,33.75
2019-01-13T08:42:35.452Z,28.13
2019-01-13T08:43:35.439Z,33.75
2019-01-13T08:44:35.427Z,33.75
2019-01-13T08:45:35.412Z,28.13
2019-01-13T08:46:35.398Z,33.75
2019-01-13T08:47:35.435Z,28.13
2019-01-13T08:48:35.372Z,28.13
2019-01-13T08:49:35.357Z,28.13
2019-01-13T08:50:35.350Z,28.13
2019-01-13T08:51:35.330Z,28.13
2019-01-13T08:52:35.317Z,28.13
2019-01-13T08:53:35.302Z,28.13
2019-01-13T08:54:35.288Z,33.75
2019-01-13T08:55:35.275Z,28.13
2019-01-13T08:56:35.261Z,33.75
2019-01-13T08:57:35.297Z,22.50
2019-01-13T08:58:35.238Z,22.50
2019-01-13T08:59:35.220Z,22.50
2019-01-13T09:00:35.207Z,33.75
2019-01-13T09:01:35.195Z,22.50
2019-01-13T09:02:35.178Z,39.38
2019-01-13T09:03:35.165Z,28.13
2019-01-13T09:04:35.152Z,39.38
2019-01-13T09:05:35.137Z,28.13
2019-01-13T09:06:35.124Z,28.13
2019-01-13T09:07:35.110Z,28.13
2019-01-13T09:08:35.096Z,28.13
2019-01-13T09:09:35.086Z,22.50
2019-01-13T09:10:35.069Z,22.50
2019-01-13T09:11:35.054Z,22.50
2019-01-13T09:12:35.042Z,28.13
2019-01-13T09:13:35.027Z,22.50
2019-01-13T09:14:35.014Z,28.13
2019-01-13T09:15:35.000Z,28.13
2019-01-13T09:16:34.986Z,33.75
2019-01-13T09:17:34.972Z,28.13
2019-01-13T09:18:34.958Z,28.13
2019-01-13T09:19:34.944Z,28.13
2019-01-13T09:20:34.931Z,33.75
2019-01-13T09:21:34.917Z,33.75
2019-01-13T09:22:34.904Z,39.38
2019-01-13T09:23:34.890Z,39.38
2019-01-13T09:24:34.876Z,33.75
2019-01-13T09:25:34.871Z,33.75
2019-01-13T09:26:34.848Z,28.13
2019-01-13T09:27:34.838Z,28.13
2019-01-13T09:28:34.821Z,28.13
2019-01-13T09:29:34.810Z,28.13
2019-01-13T09:30:34.850Z,28.13
2019-01-13T09:31:34.780Z,22.50
2019-01-13T09:32:39.426Z,28.13
2019-01-13T09:33:34.759Z,28.13
2019-01-13T09:34:34.739Z,33.75
2019-01-13T09:35:34.726Z,39.38
2019-01-13T09:36:34.713Z,33.75
2019-01-13T09:37:34.699Z,39.38
2019-01-13T09:38:34.687Z,39.38
2019-01-13T09:39:34.672Z,33.75
2019-01-13T09:40:34.659Z,39.38
2019-01-13T09:41:34.645Z,39.38
2019-01-13T09:42:34.632Z,45.00
2019-01-13T09:43:34.620Z,39.38
2019-01-13T09:44:34.605Z,45.00
2019-01-13T09:45:34.591Z,39.38
2019-01-13T09:46:34.578Z,39.38
2019-01-13T09:47:34.565Z,45.00
2019-01-13T09:48:34.553Z,39.38
2019-01-13T09:49:34.538Z,39.38
2019-01-13T09:50:34.525Z,39.38
2019-01-13T09:51:34.511Z,39.38
2019-01-13T09:52:34.499Z,39.38
2019-01-13T09:53:34.485Z,45.00
2019-01-13T09:54:34.471Z,45.00
2019-01-13T09:55:34.459Z,45.00
2019-01-13T09:56:34.445Z,50.63
2019-01-13T09:57:34.431Z,45.00
2019-01-13T09:58:34.420Z,45.00
2019-01-13T09:59:34.406Z,45.00
2019-01-13T10:00:34.393Z,39.38
2019-01-13T10:01:34.379Z,45.00
2019-01-13T10:02:34.365Z,45.00
2019-01-13T10:03:34.353Z,50.63
2019-01-13T10:04:34.340Z,67.50
2019-01-13T10:05:34.326Z,61.88
2019-01-13T10:06:34.313Z,67.50
2019-01-13T10:07:34.300Z,73.13
2019-01-13T10:08:34.287Z,84.38
2019-01-13T10:09:34.273Z,84.38
2019-01-13T10:10:34.260Z,56.25
2019-01-13T10:11:34.247Z,56.25
2019-01-13T10:12:34.234Z,56.25
2019-01-13T10:13:34.220Z,50.63
2019-01-13T10:14:34.207Z,50.63
2019-01-13T10:15:34.194Z,50.63
2019-01-13T10:16:34.183Z,45.00
2019-01-13T10:17:34.171Z,39.38
2019-01-13T10:18:34.153Z,39.38
2019-01-13T10:19:34.142Z,33.75
2019-01-13T10:20:34.128Z,33.75
2019-01-13T10:21:34.116Z,45.00
2019-01-13T10:22:34.101Z,45.00
2019-01-13T10:23:34.088Z,39.38
2019-01-13T10:24:34.076Z,45.00
2019-01-13T10:25:34.062Z,45.00
2019-01-13T10:26:34.048Z,39.38
2019-01-13T10:27:34.035Z,39.38
2019-01-13T10:28:34.025Z,39.38
2019-01-13T10:29:34.008Z,39.38
2019-01-13T10:30:33.995Z,45.00
2019-01-13T10:31:33.984Z,45.00
2019-01-13T10:32:33.970Z,45.00
2019-01-13T10:33:33.956Z,50.63
2019-01-13T10:34:33.942Z,50.63
2019-01-13T10:35:33.929Z,56.25
2019-01-13T10:36:33.916Z,61.88
2019-01-13T10:37:33.903Z,50.63
2019-01-13T10:38:33.893Z,45.00
2019-01-13T10:39:33.879Z,56.25
2019-01-13T10:40:33.866Z,73.13
2019-01-13T10:41:33.852Z,56.25
2019-01-13T10:42:33.838Z,61.88
2019-01-13T10:43:33.827Z,61.88
2019-01-13T10:44:33.812Z,61.88
2019-01-13T10:45:33.802Z,56.25
2019-01-13T10:46:33.785Z,50.63
2019-01-13T10:47:33.773Z,50.63
2019-01-13T10:48:33.761Z,50.63
2019-01-13T10:49:33.746Z,45.00
2019-01-13T10:50:33.735Z,45.00
2019-01-13T10:51:33.720Z,50.63
2019-01-13T10:52:33.708Z,56.25
2019-01-13T10:53:33.694Z,56.25
2019-01-13T10:54:33.681Z,61.88
2019-01-13T10:55:33.668Z,61.88
2019-01-13T10:56:33.656Z,56.25
2019-01-13T10:57:33.642Z,50.63
2019-01-13T10:58:33.631Z,45.00
2019-01-13T10:59:33.618Z,45.00
2019-01-13T11:00:33.654Z,39.38
2019-01-13T11:01:33.591Z,39.38
2019-01-13T11:02:33.578Z,33.75
2019-01-13T11:03:33.567Z,33.75
2019-01-13T11:04:33.552Z,33.75
2019-01-13T11:05:33.538Z,39.38
2019-01-13T11:06:33.526Z,50.63
2019-01-13T11:07:33.513Z,61.88
2019-01-13T11:08:33.500Z,73.13
2019-01-13T11:09:33.486Z,67.50
2019-01-13T11:10:33.474Z,95.63
2019-01-13T11:11:33.461Z,106.88
2019-01-13T11:12:33.448Z,135.00
2019-01-13T11:13:33.437Z,106.88
2019-01-13T11:14:33.421Z,112.50
2019-01-13T11:15:33.408Z,135.00
2019-01-13T11:16:33.395Z,163.13
2019-01-13T11:17:33.384Z,151.88
2019-01-13T11:18:33.369Z,129.38
2019-01-13T11:19:33.384Z,151.88
2019-01-13T11:20:33.342Z,140.63
2019-01-13T11:21:33.328Z,168.75
2019-01-13T11:22:33.315Z,151.88
2019-01-13T11:23:33.302Z,151.88
2019-01-13T11:24:33.289Z,163.13
2019-01-13T11:25:33.275Z,174.38
2019-01-13T11:26:33.262Z,168.75
2019-01-13T11:27:33.251Z,180.00
2019-01-13T11:28:33.235Z,185.63
2019-01-13T11:29:33.224Z,202.50
2019-01-13T11:30:33.208Z,196.88
2019-01-13T11:31:33.197Z,185.63
2019-01-13T11:32:33.182Z,129.38
2019-01-13T11:33:33.168Z,135.00
2019-01-13T11:34:33.156Z,123.75
2019-01-13T11:35:33.142Z,129.38
2019-01-13T11:36:33.129Z,123.75
2019-01-13T11:37:33.115Z,106.88
2019-01-13T11:38:33.102Z,112.50
2019-01-13T11:39:33.089Z,112.50
2019-01-13T11:40:33.075Z,118.13
2019-01-13T11:41:33.061Z,140.63
2019-01-13T11:42:33.049Z,118.13
2019-01-13T11:43:33.035Z,106.88
2019-01-13T11:44:33.023Z,118.13
2019-01-13T11:45:33.008Z,106.88
2019-01-13T11:46:32.995Z,95.63
2019-01-13T11:47:32.981Z,101.25
2019-01-13T11:48:32.968Z,112.50
2019-01-13T11:49:32.957Z,112.50
2019-01-13T11:50:32.940Z,101.25
2019-01-13T11:51:32.928Z,118.13
2019-01-13T11:52:32.915Z,90.00
2019-01-13T11:53:32.901Z,101.25
2019-01-13T11:54:32.888Z,101.25
2019-01-13T11:55:32.874Z,84.38
2019-01-13T11:56:32.872Z,95.63
2019-01-13T11:57:32.847Z,95.63
2019-01-13T11:58:32.833Z,101.25
2019-01-13T11:59:32.820Z,95.63
2019-01-13T12:00:32.807Z,90.00
2019-01-13T12:01:32.792Z,101.25
2019-01-13T12:02:33.030Z,118.13
2019-01-13T12:03:32.767Z,112.50
2019-01-13T12:04:32.753Z,95.63
2019-01-13T12:05:32.739Z,90.00
2019-01-13T12:06:32.725Z,84.38
2019-01-13T12:07:32.713Z,95.63
2019-01-13T12:08:32.699Z,95.63
2019-01-13T12:09:32.685Z,78.75
2019-01-13T12:10:32.671Z,67.50
2019-01-13T12:11:32.658Z,61.88
2019-01-13T12:12:32.645Z,39.38
2019-01-13T12:13:32.630Z,39.38
2019-01-13T12:14:32.617Z,39.38
2019-01-13T12:15:32.606Z,33.75
2019-01-13T12:16:32.590Z,33.75
2019-01-13T12:17:32.575Z,33.75
2019-01-13T12:18:32.562Z,33.75
2019-01-13T12:19:32.549Z,28.13
2019-01-13T12:20:32.537Z,33.75
2019-01-13T12:21:32.521Z,33.75
2019-01-13T12:22:32.511Z,33.75
2019-01-13T12:23:32.495Z,39.38
2019-01-13T12:24:32.482Z,39.38
2019-01-13T12:25:32.466Z,28.13
2019-01-13T12:26:32.454Z,33.75
2019-01-13T12:27:32.440Z,33.75
2019-01-13T12:28:32.426Z,39.38
2019-01-13T12:29:32.413Z,45.00
2019-01-13T12:30:32.399Z,56.25
2019-01-13T12:31:32.417Z,73.13
2019-01-13T12:32:32.372Z,84.38
2019-01-13T12:33:32.358Z,78.75
2019-01-13T12:34:32.344Z,84.38
2019-01-13T12:35:32.332Z,90.00
2019-01-13T12:36:32.318Z,73.13
2019-01-13T12:37:32.304Z,73.13
2019-01-13T12:38:32.290Z,73.13
2019-01-13T12:39:32.277Z,73.13
2019-01-13T12:40:32.264Z,84.38
2019-01-13T12:41:32.249Z,84.38
2019-01-13T12:42:32.236Z,67.50
2019-01-13T12:43:32.227Z,90.00
2019-01-13T12:44:32.209Z,84.38
2019-01-13T12:45:32.196Z,78.75
2019-01-13T12:46:32.181Z,73.13
2019-01-13T12:47:32.169Z,73.13
2019-01-13T12:48:32.155Z,73.13
2019-01-13T12:49:32.142Z,78.75
2019-01-13T12:50:32.130Z,78.75
2019-01-13T12:51:32.115Z,78.75
2019-01-13T12:52:33.690Z,90.00
2019-01-13T12:53:32.086Z,73.13
2019-01-13T12:54:32.075Z,78.75
2019-01-13T12:55:32.069Z,95.63
2019-01-13T12:56:32.047Z,84.38
2019-01-13T12:57:32.034Z,78.75
2019-01-13T12:58:32.020Z,84.38
2019-01-13T12:59:32.006Z,84.38
2019-01-13T13:00:31.993Z,67.50
2019-01-13T13:01:31.979Z,67.50
2019-01-13T13:02:31.965Z,61.88
2019-01-13T13:03:32.051Z,78.75
2019-01-13T13:04:31.946Z,67.50
2019-01-13T13:05:31.926Z,73.13
2019-01-13T13:06:31.912Z,95.63
2019-01-13T13:07:31.899Z,78.75
2019-01-13T13:08:31.885Z,67.50
2019-01-13T13:09:31.872Z,90.00
2019-01-13T13:10:31.859Z,78.75
2019-01-13T13:11:31.845Z,73.13
2019-01-13T13:12:31.832Z,78.75
2019-01-13T13:13:31.818Z,84.38
2019-01-13T13:14:31.806Z,78.75
2019-01-13T13:15:31.791Z,78.75
2019-01-13T13:16:31.778Z,67.50